Time;durP1;ratioP1;P1;durP2;ratioP2;P2;SDS_P1;SDS_P2;PMS_P1;PMS_P2;Temp;Humidity;BMP_temperature;BMP_pressure;BME280_temperature;BME280_humidity;BME280_pressure;Samples;Min_cycle;Max_cycle;Signal;HPM_P1;HPM_P2
2023/09/03 00:00:40;;;;;;;6.95;6.25;;;13.60;99.90;;;;;;5133583;27;20042;-83
2023/09/03 00:03:06;;;;;;;7.60;6.80;;;13.60;99.90;;;;;;5133379;28;20051;-83
2023/09/03 00:05:32;;;;;;;7.72;6.93;;;13.50;99.90;;;;;;5115242;28;20047;-83
2023/09/03 00:07:58;;;;;;;9.38;7.57;;;13.50;99.90;;;;;;5133101;28;20511;-84
2023/09/03 00:10:24;;;;;;;11.60;8.85;;;13.50;99.90;;;;;;5133489;28;20089;-83
2023/09/03 00:12:50;;;;;;;9.15;7.78;;;13.50;99.90;;;;;;5133390;27;20133;-82
2023/09/03 00:15:21;;;;;;;7.70;6.82;;;13.40;99.90;;;;;;5137406;27;20043;-84
2023/09/03 00:17:47;;;;;;;10.30;8.02;;;13.40;99.90;;;;;;5137753;27;20047;-83
2023/09/03 00:20:13;;;;;;;10.32;8.88;;;13.40;99.90;;;;;;5137638;27;20134;-84
2023/09/03 00:22:39;;;;;;;8.80;7.05;;;13.40;99.90;;;;;;5137780;27;20106;-83
2023/09/03 00:25:06;;;;;;;11.27;8.27;;;13.30;99.90;;;;;;5137461;27;20134;-83
2023/09/03 00:27:32;;;;;;;9.13;6.95;;;13.30;99.90;;;;;;5137428;27;20050;-83
2023/09/03 00:29:58;;;;;;;9.00;8.20;;;13.30;99.90;;;;;;5119832;27;20074;-83
2023/09/03 00:32:23;;;;;;;9.93;7.32;;;13.20;99.90;;;;;;5137664;27;20105;-82
2023/09/03 00:34:49;;;;;;;7.68;6.97;;;13.20;99.90;;;;;;5137303;27;20051;-82
2023/09/03 00:37:15;;;;;;;7.57;6.65;;;13.20;99.90;;;;;;5137391;27;20165;-82
2023/09/03 00:39:40;;;;;;;8.15;5.78;;;13.10;99.90;;;;;;5137302;27;20382;-84
2023/09/03 00:42:06;;;;;;;7.85;7.05;;;13.10;99.90;;;;;;5137087;27;20432;-83
2023/09/03 00:44:32;;;;;;;8.02;7.22;;;13.00;99.90;;;;;;5137135;27;20035;-83
2023/09/03 00:46:58;;;;;;;12.80;10.88;;;13.00;99.90;;;;;;5137012;27;20128;-82
2023/09/03 00:49:25;;;;;;;11.68;10.48;;;13.00;99.90;;;;;;5137927;27;20066;-83
2023/09/03 00:51:53;;;;;;;10.90;9.52;;;13.10;99.90;;;;;;5136965;27;20047;-84
2023/09/03 00:54:23;;;;;;;7.68;6.88;;;13.10;99.90;;;;;;5136836;27;20050;-83
2023/09/03 00:56:55;;;;;;;8.73;7.80;;;13.00;99.90;;;;;;5136975;27;20051;-82
2023/09/03 00:59:23;;;;;;;10.10;9.10;;;13.00;99.90;;;;;;5136807;27;20054;-83
2023/09/03 01:01:51;;;;;;;9.52;8.55;;;13.00;99.90;;;;;;5136810;27;20054;-83
2023/09/03 01:04:20;;;;;;;13.05;11.48;;;13.00;99.90;;;;;;5118744;27;20047;-84
2023/09/03 01:06:51;;;;;;;14.23;12.07;;;13.10;99.90;;;;;;5118249;27;20074;-85
2023/09/03 01:09:18;;;;;;;15.15;13.30;;;13.20;99.90;;;;;;5118531;27;20043;-83
2023/09/03 01:12:02;;;;;;;12.32;11.02;;;13.10;99.90;;;;;;5136602;27;20483;-82
2023/09/03 01:14:44;;;;;;;11.07;9.02;;;13.20;99.90;;;;;;5136515;27;20046;-83
2023/09/03 01:17:19;;;;;;;10.88;9.65;;;13.20;99.90;;;;;;5137087;27;20059;-83
2023/09/03 01:20:12;;;;;;;12.50;9.57;;;13.10;99.90;;;;;;5136849;27;20043;-81
2023/09/03 01:23:13;;;;;;;10.68;9.02;;;13.10;99.90;;;;;;5136738;27;20039;-85
2023/09/03 01:26:01;;;;;;;9.38;8.38;;;13.00;99.90;;;;;;5117235;27;20162;-81
2023/09/03 01:28:30;;;;;;;9.77;7.78;;;13.00;99.90;;;;;;5137591;27;20090;-83
2023/09/03 01:31:02;;;;;;;12.50;11.27;;;13.00;99.90;;;;;;5144095;27;20055;-81
2023/09/03 01:33:29;;;;;;;9.98;8.60;;;13.00;99.90;;;;;;5144659;27;20043;-82
2023/09/03 01:35:57;;;;;;;10.07;8.95;;;13.00;99.90;;;;;;5142990;27;20054;-81
2023/09/03 01:38:23;;;;;;;9.95;8.85;;;13.00;99.90;;;;;;5139266;27;20126;-84
2023/09/03 01:40:50;;;;;;;10.55;9.43;;;12.90;99.90;;;;;;5136212;27;20043;-84
2023/09/03 01:43:16;;;;;;;9.43;8.05;;;12.90;99.90;;;;;;5135910;27;20078;-82
2023/09/03 01:46:08;;;;;;;9.95;8.60;;;12.90;99.90;;;;;;5136088;27;20047;-84
2023/09/03 01:49:01;;;;;;;10.65;9.52;;;12.90;99.90;;;;;;5124472;27;20111;-83
2023/09/03 01:51:57;;;;;;;11.48;10.13;;;12.90;99.90;;;;;;5136575;27;20049;-82
2023/09/03 01:54:28;;;;;;;9.80;8.75;;;12.90;99.90;;;;;;5117920;27;20122;-83
2023/09/03 01:57:16;;;;;;;11.43;9.73;;;12.90;99.90;;;;;;5118073;27;20043;-84
2023/09/03 02:00:09;;;;;;;12.00;8.98;;;12.90;99.90;;;;;;5136391;27;20043;-83
2023/09/03 02:02:37;;;;;;;10.70;9.50;;;12.90;99.90;;;;;;5132820;27;20535;-80
2023/09/03 02:05:04;;;;;;;14.05;9.02;;;12.90;99.90;;;;;;5135498;27;20039;-84
2023/09/03 02:07:29;;;;;;;10.75;9.65;;;12.90;99.90;;;;;;5136475;27;20055;-83
2023/09/03 02:09:55;;;;;;;9.98;8.82;;;12.90;99.90;;;;;;5135609;27;20539;-84
2023/09/03 02:12:23;;;;;;;13.73;10.57;;;12.90;99.90;;;;;;5135755;27;20043;-82
2023/09/03 02:14:52;;;;;;;14.48;11.77;;;12.90;99.90;;;;;;5135788;27;20105;-83
2023/09/03 02:17:21;;;;;;;10.75;9.63;;;12.90;99.90;;;;;;5135421;27;20039;-83
2023/09/03 02:19:51;;;;;;;11.48;10.20;;;12.90;99.90;;;;;;5136002;27;20114;-84
2023/09/03 02:22:17;;;;;;;11.57;9.70;;;12.90;99.90;;;;;;5135430;27;20043;-85
2023/09/03 02:24:43;;;;;;;12.77;11.02;;;12.90;99.90;;;;;;5135747;27;20360;-83
2023/09/03 02:27:10;;;;;;;11.50;10.30;;;12.90;99.90;;;;;;5135212;27;20043;-83
2023/09/03 02:29:36;;;;;;;12.13;10.40;;;12.90;99.90;;;;;;5135780;27;20039;-82
2023/09/03 02:32:02;;;;;;;11.27;10.18;;;12.90;99.90;;;;;;5135220;27;20099;-85
2023/09/03 02:34:28;;;;;;;11.82;10.25;;;12.80;99.90;;;;;;5134862;27;20172;-84
2023/09/03 02:36:54;;;;;;;10.00;9.00;;;12.80;99.90;;;;;;5134692;27;20055;-83
2023/09/03 02:39:19;;;;;;;10.45;9.50;;;12.80;99.90;;;;;;5134675;27;20066;-82
2023/09/03 02:41:45;;;;;;;10.52;9.43;;;12.70;99.90;;;;;;5135549;27;20042;-84
2023/09/03 02:44:11;;;;;;;10.85;9.75;;;12.70;99.90;;;;;;5134921;27;20375;-83
2023/09/03 02:46:36;;;;;;;9.02;8.10;;;12.70;99.90;;;;;;5134365;27;20035;-84
2023/09/03 02:49:02;;;;;;;8.55;7.70;;;12.70;99.90;;;;;;5134671;27;20043;-83
2023/09/03 02:51:28;;;;;;;10.48;8.13;;;12.60;99.90;;;;;;5134672;27;20050;-83
2023/09/03 02:53:57;;;;;;;9.77;8.88;;;12.60;99.90;;;;;;5134856;27;20505;-83
2023/09/03 02:56:23;;;;;;;9.70;8.70;;;12.60;99.90;;;;;;5135166;27;20068;-83
2023/09/03 02:58:49;;;;;;;9.70;8.80;;;12.60;99.90;;;;;;5134620;27;20046;-82
2023/09/03 03:01:17;;;;;;;10.05;9.05;;;12.60;99.90;;;;;;5135127;27;20070;-81
2023/09/03 03:03:43;;;;;;;9.77;8.43;;;12.60;99.90;;;;;;5134385;27;20103;-82
2023/09/03 03:06:09;;;;;;;10.45;9.35;;;12.50;99.90;;;;;;5134283;27;20039;-83
2023/09/03 03:08:35;;;;;;;10.13;9.13;;;12.50;99.90;;;;;;5134395;27;20126;-81
2023/09/03 03:11:11;;;;;;;11.63;9.75;;;12.50;99.90;;;;;;5134239;27;20479;-82
2023/09/03 03:13:40;;;;;;;11.30;9.65;;;12.50;99.90;;;;;;5134575;27;20407;-82
2023/09/03 03:16:07;;;;;;;12.38;9.88;;;12.50;99.90;;;;;;5134106;27;20047;-81
2023/09/03 03:18:37;;;;;;;11.60;10.13;;;12.50;99.90;;;;;;5134186;27;20055;-84
2023/09/03 03:21:24;;;;;;;10.55;9.50;;;12.40;99.90;;;;;;5134538;27;20043;-84
2023/09/03 03:23:51;;;;;;;9.55;8.57;;;12.40;99.90;;;;;;5133635;27;20059;-81
2023/09/03 03:26:18;;;;;;;10.85;9.68;;;12.40;99.90;;;;;;5134700;27;20043;-82
2023/09/03 03:28:44;;;;;;;11.10;9.77;;;12.40;99.90;;;;;;5134055;27;20047;-83
2023/09/03 03:31:16;;;;;;;13.77;9.90;;;12.30;99.90;;;;;;5133970;27;20087;-81
2023/09/03 03:33:43;;;;;;;10.32;8.68;;;12.30;99.90;;;;;;5133931;27;20057;-83
2023/09/03 03:36:13;;;;;;;9.40;8.50;;;12.30;99.90;;;;;;5134250;27;20108;-84
2023/09/03 03:38:40;;;;;;;9.90;8.65;;;12.20;99.90;;;;;;5134564;27;20107;-82
2023/09/03 03:41:11;;;;;;;10.68;9.45;;;12.20;99.90;;;;;;5133937;27;20096;-84
2023/09/03 03:43:38;;;;;;;13.75;10.48;;;12.20;99.90;;;;;;5134207;27;20043;-82
2023/09/03 03:46:08;;;;;;;9.77;8.45;;;12.20;99.90;;;;;;5133794;27;20553;-83
2023/09/03 03:48:35;;;;;;;10.02;9.02;;;12.20;99.90;;;;;;5132728;27;20051;-82
2023/09/03 03:51:01;;;;;;;10.23;9.10;;;12.20;99.90;;;;;;5134188;27;20043;-78
2023/09/03 03:53:27;;;;;;;8.98;8.00;;;12.20;99.90;;;;;;5115925;27;20184;-82
2023/09/03 03:56:12;;;;;;;8.27;6.68;;;12.20;99.90;;;;;;5115240;27;20485;-84
2023/09/03 03:58:40;;;;;;;9.48;8.57;;;12.20;99.90;;;;;;5133984;27;20051;-83
2023/09/03 04:01:18;;;;;;;7.78;7.07;;;12.20;99.90;;;;;;5134296;27;20131;-84
2023/09/03 04:03:46;;;;;;;8.05;7.25;;;12.20;99.90;;;;;;5133938;28;20410;-83
2023/09/03 04:06:12;;;;;;;7.75;7.00;;;12.20;99.90;;;;;;5115548;28;20070;-82
2023/09/03 04:08:39;;;;;;;8.02;7.30;;;12.10;99.90;;;;;;5133506;28;20481;-83
2023/09/03 04:11:06;;;;;;;9.73;8.32;;;12.10;99.90;;;;;;5133421;28;20530;-82
2023/09/03 04:13:32;;;;;;;9.55;8.65;;;12.10;99.90;;;;;;5133540;28;20097;-83
2023/09/03 04:15:59;;;;;;;9.55;8.57;;;12.10;99.90;;;;;;5133387;28;20050;-83
2023/09/03 04:18:26;;;;;;;18.02;8.52;;;12.00;99.90;;;;;;5133321;28;20093;-83
2023/09/03 04:20:53;;;;;;;9.05;7.85;;;12.00;99.90;;;;;;5133520;28;20043;-83
2023/09/03 04:23:18;;;;;;;9.20;7.15;;;12.00;99.90;;;;;;5133876;28;20051;-84
2023/09/03 04:25:44;;;;;;;10.60;8.88;;;12.00;99.90;;;;;;5133371;28;20542;-83
2023/09/03 04:28:10;;;;;;;8.52;7.80;;;12.00;99.90;;;;;;5132978;28;20062;-82
2023/09/03 04:30:39;;;;;;;10.38;8.75;;;12.00;99.90;;;;;;5133484;28;20122;-83
2023/09/03 04:33:08;;;;;;;9.63;7.03;;;11.90;99.90;;;;;;5133221;28;20043;-82
2023/09/03 04:35:34;;;;;;;9.77;8.60;;;12.00;99.90;;;;;;5133010;28;20484;-83
2023/09/03 04:38:00;;;;;;;9.15;8.05;;;11.90;99.90;;;;;;5133070;28;20476;-82
2023/09/03 04:40:26;;;;;;;9.13;8.23;;;12.00;99.90;;;;;;5133284;28;20046;-84
2023/09/03 04:42:52;;;;;;;11.60;9.32;;;11.90;99.90;;;;;;5133543;28;20035;-82
2023/09/03 04:45:17;;;;;;;8.63;7.80;;;11.80;99.90;;;;;;5133123;28;20047;-83
2023/09/03 04:47:44;;;;;;;11.93;10.73;;;11.80;99.90;;;;;;5133675;28;20049;-85
2023/09/03 04:50:10;;;;;;;9.10;8.23;;;11.80;99.90;;;;;;5133627;28;20085;-83
2023/09/03 04:52:39;;;;;;;9.93;8.40;;;11.80;99.90;;;;;;5117603;28;20047;-82
2023/09/03 04:55:05;;;;;;;9.95;8.02;;;11.80;99.90;;;;;;5118097;28;20058;-82
2023/09/03 04:57:30;;;;;;;9.10;8.30;;;11.80;99.90;;;;;;5134492;28;20039;-81
2023/09/03 04:59:56;;;;;;;8.80;7.90;;;11.90;99.90;;;;;;5138955;27;20111;-84
2023/09/03 05:02:22;;;;;;;9.93;8.90;;;11.90;99.90;;;;;;5125752;27;20128;-82
2023/09/03 05:04:47;;;;;;;9.73;8.77;;;11.90;99.90;;;;;;5144217;27;20051;-83
2023/09/03 05:07:13;;;;;;;10.27;8.50;;;11.90;99.90;;;;;;5138741;27;20047;-84
2023/09/03 05:09:39;;;;;;;9.10;8.23;;;12.00;99.90;;;;;;5137846;27;20550;-80
2023/09/03 05:12:05;;;;;;;8.30;6.95;;;12.00;99.90;;;;;;5136714;27;20059;-81
2023/09/03 05:14:31;;;;;;;8.23;7.43;;;12.00;99.90;;;;;;5118398;27;20459;-80
2023/09/03 05:16:56;;;;;;;7.10;6.28;;;12.10;99.90;;;;;;5118150;27;20096;-81
2023/09/03 05:19:22;;;;;;;8.85;7.95;;;12.10;99.90;;;;;;5136707;27;20050;-81
2023/09/03 05:21:48;;;;;;;8.90;6.95;;;12.20;99.90;;;;;;5118131;27;20043;-81
2023/09/03 05:24:13;;;;;;;8.50;7.35;;;12.20;99.90;;;;;;5136545;27;20043;-81
2023/09/03 05:26:39;;;;;;;9.68;7.70;;;12.20;99.90;;;;;;5136152;27;20088;-80
2023/09/03 05:29:05;;;;;;;8.38;7.38;;;12.10;99.90;;;;;;5136188;27;20043;-80
2023/09/03 05:31:30;;;;;;;8.93;7.72;;;12.10;99.90;;;;;;5136141;27;20131;-78
2023/09/03 05:33:57;;;;;;;8.57;7.78;;;12.10;99.90;;;;;;5135810;27;20074;-81
2023/09/03 05:36:22;;;;;;;7.32;6.60;;;12.10;99.90;;;;;;5136478;27;20055;-81
2023/09/03 05:38:48;;;;;;;8.25;7.35;;;12.20;99.90;;;;;;5118049;27;20058;-80
2023/09/03 05:41:14;;;;;;;7.85;6.15;;;12.30;99.90;;;;;;5117941;27;20039;-80
2023/09/03 05:43:40;;;;;;;7.68;6.88;;;12.30;99.90;;;;;;5135940;27;20043;-81
2023/09/03 05:46:06;;;;;;;7.70;6.45;;;12.40;99.90;;;;;;5136072;27;20043;-80
2023/09/03 05:48:31;;;;;;;6.53;5.93;;;12.50;99.90;;;;;;5135912;27;20077;-81
2023/09/03 05:51:03;;;;;;;7.38;6.30;;;12.50;99.90;;;;;;5135887;27;20126;-81
2023/09/03 05:53:33;;;;;;;9.15;6.93;;;12.70;99.90;;;;;;5135964;27;20058;-80
2023/09/03 05:56:06;;;;;;;8.07;7.28;;;12.70;99.90;;;;;;5135726;27;20486;-81
2023/09/03 05:58:32;;;;;;;8.73;6.47;;;12.90;99.90;;;;;;5135582;27;20483;-80
2023/09/03 06:00:59;;;;;;;9.05;8.10;;;12.70;99.90;;;;;;5135710;27;20043;-78
2023/09/03 06:03:24;;;;;;;9.05;8.15;;;13.10;99.90;;;;;;5135412;27;20047;-78
2023/09/03 06:05:50;;;;;;;7.75;5.97;;;13.20;99.90;;;;;;5135733;27;20046;-78
2023/09/03 06:08:15;;;;;;;7.22;6.45;;;13.30;99.90;;;;;;5135030;27;20039;-78
2023/09/03 06:10:41;;;;;;;7.45;6.47;;;13.40;99.90;;;;;;5134553;27;20035;-77
2023/09/03 06:13:07;;;;;;;9.70;7.60;;;13.50;99.90;;;;;;5135321;27;20043;-78
2023/09/03 06:15:33;;;;;;;8.75;7.82;;;13.50;99.90;;;;;;5116915;27;20107;-78
2023/09/03 06:17:59;;;;;;;10.20;8.50;;;13.60;99.90;;;;;;5117197;27;20047;-78
2023/09/03 06:20:25;;;;;;;11.55;9.65;;;13.70;99.90;;;;;;5135818;27;20115;-80
2023/09/03 06:22:51;;;;;;;9.63;8.63;;;13.80;99.90;;;;;;5135495;27;20547;-81
2023/09/03 06:25:18;;;;;;;11.23;8.65;;;13.80;99.90;;;;;;5135220;27;20073;-82
2023/09/03 06:27:44;;;;;;;11.98;9.55;;;13.90;99.90;;;;;;5135002;27;20054;-81
2023/09/03 06:30:10;;;;;;;10.13;8.57;;;14.00;99.90;;;;;;5116581;27;20035;-81
2023/09/03 06:32:36;;;;;;;10.88;9.85;;;14.10;99.90;;;;;;5135233;27;20068;-80
2023/09/03 06:35:04;;;;;;;11.10;8.80;;;14.20;99.90;;;;;;5134830;27;20119;-81
2023/09/03 06:37:30;;;;;;;10.95;8.25;;;14.30;99.90;;;;;;5135034;27;20122;-79
2023/09/03 06:39:55;;;;;;;9.50;8.52;;;14.40;99.90;;;;;;5135423;27;20082;-81
2023/09/03 06:42:22;;;;;;;8.85;7.95;;;14.50;99.90;;;;;;5135432;27;20052;-80
2023/09/03 06:44:48;;;;;;;10.00;9.00;;;14.70;99.90;;;;;;5134795;27;20054;-81
2023/09/03 06:47:13;;;;;;;8.85;7.63;;;14.70;99.90;;;;;;5116634;27;20047;-80
2023/09/03 06:49:39;;;;;;;10.80;8.25;;;14.90;99.90;;;;;;5135350;27;20100;-81
2023/09/03 06:52:05;;;;;;;9.13;8.23;;;15.00;99.90;;;;;;5135050;27;20043;-81
2023/09/03 06:54:31;;;;;;;8.20;7.50;;;15.20;99.90;;;;;;5134723;27;20168;-81
2023/09/03 06:56:56;;;;;;;8.02;7.20;;;15.40;99.90;;;;;;5134922;27;20478;-81
2023/09/03 06:59:23;;;;;;;7.90;7.00;;;15.50;99.90;;;;;;5134293;27;20466;-81
2023/09/03 07:01:55;;;;;;;8.05;7.25;;;15.70;99.90;;;;;;5134263;27;20047;-81
2023/09/03 07:04:21;;;;;;;7.13;6.43;;;15.80;99.90;;;;;;5134762;27;20096;-80
2023/09/03 07:06:47;;;;;;;8.80;6.53;;;15.90;99.90;;;;;;5134193;27;20050;-85
2023/09/03 07:09:12;;;;;;;8.52;6.57;;;16.00;99.90;;;;;;5134696;27;20130;-86
2023/09/03 07:11:38;;;;;;;7.70;6.85;;;16.10;99.90;;;;;;5134317;27;20409;-80
2023/09/03 07:14:04;;;;;;;7.18;5.78;;;16.20;99.90;;;;;;5134220;27;20043;-81
2023/09/03 07:16:30;;;;;;;5.93;5.43;;;16.40;99.90;;;;;;5133918;27;20039;-80
2023/09/03 07:18:56;;;;;;;5.75;5.25;;;16.70;99.90;;;;;;5116209;27;20384;-80
2023/09/03 07:21:21;;;;;;;7.68;4.57;;;17.30;99.90;;;;;;5116048;27;20043;-81
2023/09/03 07:23:47;;;;;;;4.25;3.85;;;18.60;99.90;;;;;;5134211;27;20480;-81
2023/09/03 07:26:13;;;;;;;3.75;3.17;;;19.80;99.90;;;;;;5133494;27;20047;-81
2023/09/03 07:28:39;;;;;;;3.33;3.03;;;20.80;99.90;;;;;;5133867;27;20168;-81
2023/09/03 07:31:05;;;;;;;3.55;3.25;;;21.90;99.90;;;;;;5134125;27;20123;-80
2023/09/03 07:33:34;;;;;;;2.92;2.72;;;22.70;99.90;;;;;;5133785;27;20039;-80
2023/09/03 07:36:00;;;;;;;3.95;2.55;;;23.40;99.90;;;;;;5133844;27;20061;-81
2023/09/03 07:38:27;;;;;;;2.40;2.20;;;23.70;99.90;;;;;;5133434;27;20047;-82
2023/09/03 07:40:53;;;;;;;7.05;2.50;;;23.90;99.90;;;;;;5133989;27;20404;-82
2023/09/03 07:43:19;;;;;;;4.07;2.42;;;23.90;99.90;;;;;;5134093;27;20043;-81
2023/09/03 07:45:45;;;;;;;4.38;2.30;;;23.90;99.90;;;;;;5133626;27;20047;-81
2023/09/03 07:48:11;;;;;;;2.45;2.10;;;23.90;99.90;;;;;;5133706;27;20047;-81
2023/09/03 07:50:40;;;;;;;5.60;2.20;;;23.60;99.90;;;;;;5098537;27;20095;-82
2023/09/03 07:53:06;;;;;;;2.58;2.03;;;23.40;99.90;;;;;;5133197;27;20096;-81
2023/09/03 07:55:31;;;;;;;2.40;2.20;;;23.20;99.90;;;;;;5133733;27;20043;-81
2023/09/03 07:57:57;;;;;;;2.97;2.38;;;23.30;99.90;;;;;;5133535;27;20066;-81
2023/09/03 08:00:23;;;;;;;3.33;2.35;;;23.60;99.90;;;;;;5133412;27;20039;-82
2023/09/03 08:02:49;;;;;;;3.03;2.33;;;23.70;99.90;;;;;;5115233;28;20061;-80
2023/09/03 08:05:16;;;;;;;3.95;2.20;;;23.70;99.90;;;;;;5133414;28;20051;-80
2023/09/03 08:07:42;;;;;;;2.25;2.05;;;23.80;99.90;;;;;;5133480;28;20047;-80
2023/09/03 08:10:08;;;;;;;2.05;1.90;;;24.30;99.90;;;;;;5133313;28;20051;-81
2023/09/03 08:12:34;;;;;;;2.60;2.13;;;24.70;99.90;;;;;;5098217;28;20101;-80
2023/09/03 08:15:00;;;;;;;2.92;1.95;;;25.10;99.90;;;;;;5133894;28;20095;-80
2023/09/03 08:17:26;;;;;;;3.45;2.10;;;25.60;99.90;;;;;;5133206;28;20519;-80
2023/09/03 08:19:52;;;;;;;4.38;2.05;;;25.80;99.90;;;;;;5115268;28;20125;-81
2023/09/03 08:22:18;;;;;;;2.65;2.10;;;26.10;99.90;;;;;;5132933;28;20078;-79
2023/09/03 08:24:43;;;;;;;4.55;1.90;;;26.00;99.80;;;;;;5133376;28;20043;-81
2023/09/03 08:27:09;;;;;;;3.42;1.70;;;25.90;99.40;;;;;;5133401;28;20120;-80
2023/09/03 08:29:34;;;;;;;1.95;1.80;;;26.00;99.30;;;;;;5133896;28;20491;-80
2023/09/03 08:32:00;;;;;;;2.88;1.90;;;26.20;99.10;;;;;;5115163;28;20047;-80
2023/09/03 08:34:26;;;;;;;3.05;1.50;;;26.30;98.80;;;;;;5116552;27;20035;-79
2023/09/03 08:36:52;;;;;;;2.67;1.20;;;26.80;98.50;;;;;;5139004;27;20051;-79
2023/09/03 08:39:17;;;;;;;3.63;1.50;;;27.10;98.00;;;;;;5138709;27;20076;-81
2023/09/03 08:41:45;;;;;;;1.77;1.23;;;27.50;97.50;;;;;;5137874;27;20129;-79
2023/09/03 08:44:23;;;;;;;1.63;1.50;;;27.90;97.20;;;;;;5102479;27;20050;-79
2023/09/03 08:46:55;;;;;;;3.20;1.52;;;27.90;95.70;;;;;;5137525;27;20049;-79
2023/09/03 08:49:21;;;;;;;2.60;1.70;;;28.00;96.50;;;;;;5137391;27;20051;-80
2023/09/03 08:51:47;;;;;;;3.03;1.52;;;27.70;96.30;;;;;;5101975;27;20091;-80
2023/09/03 08:54:13;;;;;;;4.40;2.22;;;27.60;96.20;;;;;;5136904;27;20046;-80
2023/09/03 08:56:39;;;;;;;1.55;1.30;;;27.50;95.80;;;;;;5136879;27;20047;-80
2023/09/03 08:59:04;;;;;;;2.45;1.50;;;27.50;95.60;;;;;;5136936;27;20058;-81
2023/09/03 09:01:31;;;;;;;2.42;1.63;;;27.80;95.50;;;;;;5118525;27;20391;-80
2023/09/03 09:04:01;;;;;;;2.80;1.65;;;27.80;95.20;;;;;;5137222;27;20078;-78
2023/09/03 09:06:29;;;;;;;1.42;1.33;;;27.60;95.00;;;;;;5136755;27;20547;-78
2023/09/03 09:08:58;;;;;;;2.45;1.80;;;27.50;95.40;;;;;;5118538;27;20043;-80
2023/09/03 09:11:28;;;;;;;1.63;1.40;;;27.70;95.40;;;;;;5136631;27;20122;-80
2023/09/03 09:13:57;;;;;;;1.83;1.50;;;28.10;95.10;;;;;;5101746;27;20147;-81
2023/09/03 09:16:23;;;;;;;2.63;1.27;;;28.20;94.30;;;;;;5137191;27;20074;-80
2023/09/03 09:18:49;;;;;;;3.08;1.58;;;27.80;94.90;;;;;;5136835;27;20497;-80
2023/09/03 09:21:16;;;;;;;1.40;1.27;;;28.00;94.80;;;;;;5118321;27;20557;-80
2023/09/03 09:23:42;;;;;;;2.00;1.20;;;27.90;94.50;;;;;;5118534;27;20051;-80
2023/09/03 09:26:18;;;;;;;2.45;1.55;;;27.80;94.00;;;;;;5136437;27;20066;-80
2023/09/03 09:29:19;;;;;;;2.53;1.35;;;27.80;91.90;;;;;;5136451;27;20058;-80
2023/09/03 09:31:45;;;;;;;1.70;1.10;;;27.50;92.60;;;;;;5093129;27;20059;-81
2023/09/03 09:34:12;;;;;;;1.98;1.50;;;27.50;94.20;;;;;;5136915;27;20486;-79
2023/09/03 09:36:38;;;;;;;1.48;1.08;;;27.60;93.60;;;;;;5117868;27;20484;-83
2023/09/03 09:39:08;;;;;;;1.70;1.25;;;27.80;93.40;;;;;;5136101;27;20130;-83
2023/09/03 09:41:40;;;;;;;1.95;1.40;;;27.90;93.40;;;;;;5118184;27;20051;-81
2023/09/03 09:44:10;;;;;;;2.08;1.20;;;28.00;93.10;;;;;;5136168;27;20036;-82
2023/09/03 09:46:36;;;;;;;1.10;1.00;;;27.90;93.20;;;;;;5136262;27;20101;-82
2023/09/03 09:49:02;;;;;;;1.45;1.30;;;27.90;92.80;;;;;;5136424;27;20036;-83
2023/09/03 09:51:29;;;;;;;1.35;1.25;;;27.90;92.40;;;;;;5117810;27;20051;-82
2023/09/03 09:53:57;;;;;;;2.40;1.60;;;27.80;92.60;;;;;;5135866;27;20047;-84
2023/09/03 09:56:28;;;;;;;1.67;1.45;;;27.50;92.30;;;;;;5136316;27;20039;-84
2023/09/03 09:58:56;;;;;;;1.50;1.40;;;27.30;92.50;;;;;;5136393;27;20055;-83
2023/09/03 10:01:23;;;;;;;2.50;1.85;;;27.70;92.90;;;;;;5136792;27;20062;-83
2023/09/03 10:03:49;;;;;;;1.80;1.38;;;27.80;92.50;;;;;;5136530;27;20047;-83
2023/09/03 10:06:20;;;;;;;1.67;1.40;;;27.90;92.50;;;;;;5136107;27;20586;-83
2023/09/03 10:08:48;;;;;;;2.35;1.60;;;27.80;92.60;;;;;;5136899;27;20114;-83
2023/09/03 10:11:14;;;;;;;3.38;1.70;;;27.90;92.30;;;;;;5145711;27;20047;-80
2023/09/03 10:13:42;;;;;;;2.22;1.52;;;27.90;92.40;;;;;;5138334;27;20094;-80
2023/09/03 10:16:09;;;;;;;2.03;1.35;;;28.00;92.70;;;;;;5135836;27;20111;-80
2023/09/03 10:18:49;;;;;;;1.40;1.30;;;28.00;92.40;;;;;;5135016;27;20111;-80
2023/09/03 10:21:22;;;;;;;2.38;1.67;;;28.00;90.80;;;;;;5134874;27;20368;-81
2023/09/03 10:23:50;;;;;;;1.48;1.38;;;28.10;91.80;;;;;;5135861;27;20069;-80
2023/09/03 10:26:24;;;;;;;1.92;1.45;;;28.40;92.40;;;;;;5135380;27;20039;-81
2023/09/03 10:28:54;;;;;;;2.63;1.63;;;28.60;92.30;;;;;;5135055;27;20043;-82
2023/09/03 10:31:23;;;;;;;2.17;1.48;;;29.10;91.90;;;;;;5135303;27;20047;-80
2023/09/03 10:33:48;;;;;;;1.73;1.58;;;29.40;91.40;;;;;;5134947;27;20039;-81
2023/09/03 10:36:16;;;;;;;1.80;1.25;;;29.60;91.50;;;;;;5135640;27;20120;-81
2023/09/03 10:38:43;;;;;;;2.00;1.50;;;29.70;91.20;;;;;;5134815;27;20118;-81
2023/09/03 10:41:16;;;;;;;3.65;1.33;;;30.20;91.10;;;;;;5134912;27;20071;-81
2023/09/03 10:43:42;;;;;;;1.25;1.15;;;30.30;90.30;;;;;;5135516;27;20082;-80
2023/09/03 10:46:07;;;;;;;2.42;1.58;;;30.20;90.20;;;;;;5134708;27;20065;-80
2023/09/03 10:48:36;;;;;;;1.58;1.23;;;29.60;90.40;;;;;;5134490;27;20043;-79
2023/09/03 10:51:02;;;;;;;1.30;1.10;;;29.00;90.50;;;;;;5134491;27;20055;-80
2023/09/03 10:53:37;;;;;;;1.75;1.20;;;28.20;91.10;;;;;;5134619;27;20039;-78
2023/09/03 10:56:11;;;;;;;1.42;1.27;;;27.40;90.40;;;;;;5116009;27;20385;-79
2023/09/03 10:58:57;;;;;;;1.48;1.30;;;26.60;90.70;;;;;;5115779;27;20039;-79
2023/09/03 11:01:33;;;;;;;2.33;1.77;;;25.80;91.70;;;;;;5116019;27;20051;-79
2023/09/03 11:04:03;;;;;;;1.38;1.27;;;25.20;92.70;;;;;;5134600;27;20043;-81
2023/09/03 11:06:31;;;;;;;1.65;1.50;;;25.10;92.90;;;;;;5134492;27;20047;-80
2023/09/03 11:09:06;;;;;;;3.28;1.58;;;24.80;93.50;;;;;;5134544;27;20050;-81
2023/09/03 11:11:36;;;;;;;2.33;1.38;;;24.60;93.20;;;;;;5116276;27;20091;-81
2023/09/03 11:14:03;;;;;;;2.08;1.58;;;24.20;93.00;;;;;;5134700;27;20043;-81
2023/09/03 11:16:36;;;;;;;1.67;1.40;;;24.20;93.60;;;;;;5133987;27;20129;-80
2023/09/03 11:19:04;;;;;;;1.27;1.17;;;24.20;93.90;;;;;;5134468;27;20062;-82
2023/09/03 11:21:30;;;;;;;2.28;1.40;;;24.10;93.60;;;;;;5133912;27;20031;-81
2023/09/03 11:24:14;;;;;;;1.63;1.23;;;24.00;93.50;;;;;;5134253;27;20111;-81
2023/09/03 11:26:40;;;;;;;1.52;1.30;;;24.00;94.00;;;;;;5133698;27;20120;-81
2023/09/03 11:29:19;;;;;;;1.65;1.20;;;23.90;93.60;;;;;;5134431;27;20100;-81
2023/09/03 11:31:48;;;;;;;3.03;1.50;;;24.00;93.60;;;;;;5133908;27;20043;-81
2023/09/03 11:34:18;;;;;;;2.08;1.30;;;24.10;94.20;;;;;;5115193;27;20043;-82
2023/09/03 11:36:47;;;;;;;1.95;1.30;;;24.20;93.50;;;;;;5134366;27;20059;-80
2023/09/03 11:39:17;;;;;;;1.52;1.25;;;24.10;93.40;;;;;;5133761;27;20084;-80
2023/09/03 11:41:44;;;;;;;2.33;2.08;;;24.10;93.40;;;;;;5133683;27;20031;-81
2023/09/03 11:44:23;;;;;;;1.85;1.45;;;24.10;93.70;;;;;;5134084;27;20081;-81
2023/09/03 11:46:57;;;;;;;2.15;1.38;;;24.10;93.40;;;;;;5133737;27;20400;-80
2023/09/03 11:49:23;;;;;;;2.47;1.58;;;24.10;93.50;;;;;;5133299;27;20077;-82
2023/09/03 11:51:48;;;;;;;1.25;1.15;;;24.00;93.40;;;;;;5133854;27;20074;-81
2023/09/03 11:54:24;;;;;;;1.88;1.20;;;24.10;93.30;;;;;;5132940;27;20054;-80
2023/09/03 11:56:51;;;;;;;1.67;1.20;;;24.10;93.60;;;;;;5133887;27;20043;-79
2023/09/03 11:59:18;;;;;;;1.73;1.30;;;24.10;93.40;;;;;;5133369;27;20051;-81
2023/09/03 12:01:44;;;;;;;1.33;1.23;;;24.20;93.70;;;;;;5115534;27;20043;-81
2023/09/03 12:04:10;;;;;;;1.35;1.25;;;24.10;93.30;;;;;;5115393;28;20118;-82
2023/09/03 12:06:37;;;;;;;3.15;1.60;;;24.10;93.60;;;;;;5133413;28;20049;-80
2023/09/03 12:09:03;;;;;;;2.05;1.58;;;24.10;93.60;;;;;;5132916;27;20043;-80
2023/09/03 12:11:32;;;;;;;3.38;2.08;;;24.10;93.70;;;;;;5133350;28;20449;-82
2023/09/03 12:13:57;;;;;;;1.70;1.58;;;24.10;93.20;;;;;;5133294;28;20520;-80
2023/09/03 12:16:24;;;;;;;1.20;1.10;;;24.00;93.90;;;;;;5133313;28;20047;-79
2023/09/03 12:18:58;;;;;;;1.60;1.42;;;23.90;93.40;;;;;;5132951;28;20488;-80
2023/09/03 12:21:34;;;;;;;1.50;1.40;;;23.90;93.60;;;;;;5133239;28;20039;-79
2023/09/03 12:24:07;;;;;;;1.25;1.15;;;23.90;93.90;;;;;;5133017;28;20092;-81
2023/09/03 12:26:36;;;;;;;1.58;1.40;;;23.80;93.70;;;;;;5133112;28;20047;-80
2023/09/03 12:29:18;;;;;;;1.45;1.33;;;23.80;93.80;;;;;;5133132;28;20043;-81
2023/09/03 12:31:45;;;;;;;2.35;1.27;;;23.90;93.60;;;;;;5132968;28;20040;-80
2023/09/03 12:34:10;;;;;;;2.05;1.42;;;23.70;93.20;;;;;;5132903;28;20043;-80
2023/09/03 12:36:59;;;;;;;1.60;1.50;;;23.50;93.50;;;;;;5132821;28;20055;-79
2023/09/03 12:39:40;;;;;;;1.40;1.30;;;23.40;94.50;;;;;;5098178;28;20558;-81
2023/09/03 12:42:07;;;;;;;2.05;1.70;;;23.40;94.30;;;;;;5133090;28;20468;-80
2023/09/03 12:44:33;;;;;;;1.38;1.27;;;23.40;94.60;;;;;;5132812;28;20047;-81
2023/09/03 12:47:00;;;;;;;5.40;1.92;;;23.50;94.40;;;;;;5133170;28;20086;-82
2023/09/03 12:49:27;;;;;;;1.85;1.75;;;23.60;94.30;;;;;;5132661;28;20047;-83